createdAt,value
2023-03-11T00:01:24.345Z,1.25
2023-03-11T00:03:51.502Z,0.90
2023-03-11T00:06:18.621Z,0.90
2023-03-11T00:08:48.808Z,0.93
2023-03-11T00:11:15.960Z,0.70
2023-03-11T00:13:43.316Z,0.60
2023-03-11T00:16:10.484Z,0.55
2023-03-11T00:18:37.633Z,0.98
2023-03-11T00:21:04.992Z,0.98
2023-03-11T00:23:32.652Z,0.75
2023-03-11T00:26:02.058Z,0.80
2023-03-11T00:28:29.171Z,0.98
2023-03-11T00:30:56.361Z,0.77
2023-03-11T00:33:24.247Z,0.77
2023-03-11T00:35:51.676Z,1.05
2023-03-11T00:38:19.004Z,1.38
2023-03-11T00:40:46.820Z,0.90
2023-03-11T00:43:14.189Z,0.65
2023-03-11T00:45:41.382Z,0.73
2023-03-11T00:48:08.660Z,0.80
2023-03-11T00:50:37.094Z,1.33
2023-03-11T00:53:04.419Z,1.13
2023-03-11T00:55:32.890Z,0.93
2023-03-11T00:58:02.048Z,0.85
2023-03-11T01:00:30.009Z,0.80
2023-03-11T01:02:57.859Z,1.00
2023-03-11T01:05:26.878Z,0.80
2023-03-11T01:07:54.025Z,0.98
2023-03-11T01:10:21.252Z,0.65
2023-03-11T01:12:48.625Z,0.85
2023-03-11T01:15:18.531Z,0.47
2023-03-11T01:17:45.663Z,0.73
2023-03-11T01:20:13.246Z,0.70
2023-03-11T01:22:40.383Z,0.85
2023-03-11T01:25:07.730Z,0.90
2023-03-11T01:27:35.092Z,0.68
2023-03-11T01:30:02.511Z,0.82
2023-03-11T01:32:30.689Z,0.73
2023-03-11T01:34:57.839Z,0.75
2023-03-11T01:37:25.172Z,0.85
2023-03-11T01:39:52.523Z,0.70
2023-03-11T01:42:19.695Z,0.90
2023-03-11T01:44:47.210Z,0.85
2023-03-11T01:47:14.336Z,0.98
2023-03-11T01:49:42.127Z,0.70
2023-03-11T01:52:09.790Z,0.70
2023-03-11T01:54:40.154Z,0.70
2023-03-11T01:57:08.615Z,0.60
2023-03-11T01:59:41.277Z,0.70
2023-03-11T02:02:27.073Z,0.73
2023-03-11T02:04:55.228Z,0.70
2023-03-11T02:07:22.505Z,0.57
2023-03-11T02:09:49.817Z,0.73
2023-03-11T02:12:17.090Z,0.82
2023-03-11T02:14:46.220Z,0.95
2023-03-11T02:17:13.503Z,0.63
2023-03-11T02:19:59.165Z,1.27
2023-03-11T02:22:29.107Z,0.88
2023-03-11T02:25:02.554Z,1.00
2023-03-11T02:27:31.807Z,0.90
2023-03-11T02:32:26.026Z,0.93
2023-03-11T02:34:53.346Z,0.88
2023-03-11T02:37:20.585Z,0.80
2023-03-11T02:39:48.830Z,1.27
2023-03-11T02:42:23.445Z,1.42
2023-03-11T02:45:00.075Z,1.60
2023-03-11T02:47:27.678Z,2.40
2023-03-11T02:49:55.853Z,1.80
2023-03-11T02:52:23.070Z,1.85
2023-03-11T02:54:50.200Z,2.33
2023-03-11T02:57:17.389Z,2.30
2023-03-11T02:59:44.873Z,2.10
2023-03-11T03:02:12.018Z,2.53
2023-03-11T03:04:39.101Z,2.03
2023-03-11T03:07:06.302Z,2.20
2023-03-11T03:09:33.974Z,2.22
2023-03-11T03:12:01.346Z,1.70
2023-03-11T03:14:28.498Z,2.33
2023-03-11T03:16:55.724Z,2.72
2023-03-11T03:19:23.149Z,4.30
2023-03-11T03:21:50.408Z,3.92
2023-03-11T03:24:17.697Z,4.70
2023-03-11T03:26:44.864Z,3.33
2023-03-11T03:29:12.122Z,4.10
2023-03-11T03:31:39.743Z,4.13
2023-03-11T03:34:06.942Z,5.32
2023-03-11T03:36:34.052Z,4.50
2023-03-11T03:39:01.583Z,4.60
2023-03-11T03:41:28.723Z,3.17
2023-03-11T03:43:55.922Z,3.03
2023-03-11T03:46:23.644Z,2.70
2023-03-11T03:48:50.864Z,1.83
2023-03-11T03:51:18.118Z,2.58
2023-03-11T03:53:46.571Z,2.28
2023-03-11T03:56:15.472Z,1.55
2023-03-11T03:58:42.856Z,1.75
2023-03-11T04:01:10.813Z,1.75
2023-03-11T04:03:39.114Z,1.17
2023-03-11T04:06:12.229Z,1.45
2023-03-11T04:08:40.480Z,2.10
2023-03-11T04:11:07.718Z,2.10
2023-03-11T04:13:34.885Z,2.17
2023-03-11T04:16:04.167Z,1.90
2023-03-11T04:18:31.600Z,1.73
2023-03-11T04:20:58.698Z,2.08
2023-03-11T04:23:25.903Z,1.52
2023-03-11T04:25:53.013Z,1.30
2023-03-11T04:28:20.236Z,1.25
2023-03-11T04:30:47.681Z,1.30
2023-03-11T04:33:14.919Z,1.20
2023-03-11T04:35:42.014Z,1.40
2023-03-11T04:38:09.135Z,1.00
2023-03-11T04:40:37.677Z,1.33
2023-03-11T04:43:04.956Z,1.48
2023-03-11T04:45:32.186Z,1.23
2023-03-11T04:47:59.324Z,1.50
2023-03-11T04:50:26.570Z,1.30
2023-03-11T04:52:53.753Z,1.38
2023-03-11T04:55:21.081Z,1.10
2023-03-11T04:57:48.199Z,0.90
2023-03-11T05:00:15.888Z,1.00
2023-03-11T05:02:43.374Z,0.68
2023-03-11T05:05:10.633Z,1.10
2023-03-11T05:07:37.970Z,1.00
2023-03-11T05:10:05.865Z,0.98
2023-03-11T05:12:33.180Z,1.05
2023-03-11T05:15:00.352Z,1.15
2023-03-11T05:17:27.464Z,1.75
2023-03-11T05:19:54.790Z,1.00
2023-03-11T05:22:22.047Z,1.17
2023-03-11T05:24:49.203Z,1.10
2023-03-11T05:27:18.079Z,1.00
2023-03-11T05:29:45.347Z,1.10
2023-03-11T05:32:13.323Z,1.00
2023-03-11T05:34:40.536Z,1.40
2023-03-11T05:37:07.725Z,1.23
2023-03-11T05:39:35.131Z,1.58
2023-03-11T05:42:02.236Z,1.40
2023-03-11T05:44:29.361Z,1.25
2023-03-11T05:46:56.540Z,1.30
2023-03-11T05:49:23.876Z,1.20
2023-03-11T05:51:51.408Z,1.20
2023-03-11T05:54:18.631Z,1.15
2023-03-11T05:56:46.166Z,1.20
2023-03-11T05:59:16.378Z,1.13
2023-03-11T06:01:44.226Z,1.08
2023-03-11T06:04:11.973Z,0.98
2023-03-11T06:06:41.091Z,1.45
2023-03-11T06:09:08.877Z,1.60
2023-03-11T06:11:36.012Z,1.20
2023-03-11T06:14:03.202Z,1.25
2023-03-11T06:16:30.421Z,1.10
2023-03-11T06:19:00.436Z,1.20
2023-03-11T06:21:27.812Z,1.10
2023-03-11T06:23:55.807Z,1.10
2023-03-11T06:26:24.392Z,1.17
2023-03-11T06:28:52.629Z,1.27
2023-03-11T06:31:21.307Z,1.25
2023-03-11T06:33:48.639Z,1.10
2023-03-11T06:36:16.640Z,1.15
2023-03-11T06:38:44.052Z,1.30
2023-03-11T06:41:11.495Z,1.27
2023-03-11T06:43:38.691Z,1.20
2023-03-11T06:46:13.125Z,1.05
2023-03-11T06:48:41.780Z,1.13
2023-03-11T06:51:09.233Z,1.35
2023-03-11T06:53:36.487Z,1.17
2023-03-11T06:56:05.528Z,1.10
2023-03-11T07:01:03.332Z,1.60
2023-03-11T07:03:30.644Z,1.30
2023-03-11T07:05:58.516Z,1.30
2023-03-11T07:08:27.485Z,1.10
2023-03-11T07:11:05.111Z,1.70
2023-03-11T07:13:32.536Z,5.22
2023-03-11T07:16:02.674Z,6.90
2023-03-11T07:18:29.854Z,7.95
2023-03-11T07:20:57.108Z,13.93
2023-03-11T07:23:24.292Z,9.73
2023-03-11T07:25:52.867Z,7.00
2023-03-11T07:28:20.211Z,5.75
2023-03-11T07:30:48.610Z,4.38
2023-03-11T07:33:15.856Z,4.47
2023-03-11T07:35:43.221Z,3.28
2023-03-11T07:38:10.446Z,2.72
2023-03-11T07:40:37.859Z,3.00
2023-03-11T07:43:05.275Z,2.60
2023-03-11T07:45:32.486Z,2.78
2023-03-11T07:48:00.713Z,4.32
2023-03-11T07:50:27.915Z,5.00
2023-03-11T07:52:55.233Z,11.27
2023-03-11T07:55:22.389Z,6.70
2023-03-11T07:57:49.769Z,8.68
2023-03-11T08:00:17.236Z,5.57
2023-03-11T08:02:44.456Z,3.50
2023-03-11T08:05:12.018Z,3.67
2023-03-11T08:07:39.409Z,2.97
2023-03-11T08:10:06.951Z,2.40
2023-03-11T08:12:34.311Z,2.33
2023-03-11T08:15:01.612Z,2.45
2023-03-11T08:17:31.915Z,2.00
2023-03-11T08:19:59.153Z,1.77
2023-03-11T08:22:26.330Z,2.33
2023-03-11T08:24:53.621Z,1.80
2023-03-11T08:27:20.924Z,1.90
2023-03-11T08:29:48.316Z,1.95
2023-03-11T08:32:15.512Z,2.05
2023-03-11T08:34:42.733Z,1.98
2023-03-11T08:37:10.106Z,1.30
2023-03-11T08:39:37.344Z,1.60
2023-03-11T08:42:04.862Z,1.63
2023-03-11T08:44:32.649Z,1.40
2023-03-11T08:47:05.140Z,1.77
2023-03-11T08:49:34.366Z,2.00
2023-03-11T08:52:02.808Z,1.80
2023-03-11T08:54:30.035Z,1.80
2023-03-11T08:56:58.831Z,1.77
2023-03-11T09:04:34.355Z,1.45
2023-03-11T09:07:01.665Z,1.20
2023-03-11T09:09:29.006Z,0.95
2023-03-11T09:11:56.311Z,1.17
2023-03-11T09:17:04.630Z,1.08
2023-03-11T09:19:32.055Z,1.63
2023-03-11T09:22:01.664Z,1.50
2023-03-11T09:24:28.926Z,1.40
2023-03-11T09:26:56.091Z,1.02
2023-03-11T09:29:23.220Z,1.83
2023-03-11T09:31:50.636Z,1.00
2023-03-11T09:34:17.920Z,0.80
2023-03-11T09:36:45.576Z,1.10
2023-03-11T09:39:12.767Z,1.00
2023-03-11T09:42:01.416Z,0.98
2023-03-11T09:44:37.949Z,1.20
2023-03-11T09:47:20.550Z,0.80
2023-03-11T09:50:06.761Z,1.05
2023-03-11T09:52:34.068Z,0.90
2023-03-11T09:55:03.425Z,0.73
2023-03-11T09:57:33.845Z,0.70
2023-03-11T10:00:02.835Z,0.80
2023-03-11T10:02:30.313Z,1.00
2023-03-11T10:04:59.437Z,0.80
2023-03-11T10:07:29.715Z,0.90
2023-03-11T10:09:58.105Z,0.95
2023-03-11T10:12:31.119Z,0.90
2023-03-11T10:15:06.460Z,1.15
2023-03-11T10:17:54.811Z,0.50
2023-03-11T10:20:24.718Z,0.90
2023-03-11T10:22:58.188Z,1.00
2023-03-11T10:25:28.031Z,0.95
2023-03-11T10:27:57.943Z,1.98
2023-03-11T10:30:34.062Z,2.17
2023-03-11T10:33:07.648Z,1.60
2023-03-11T10:35:34.808Z,1.38
2023-03-11T10:38:06.511Z,0.88
2023-03-11T10:40:35.489Z,0.93
2023-03-11T10:43:04.758Z,0.95
2023-03-11T10:45:36.180Z,0.95
2023-03-11T10:48:03.389Z,1.27
2023-03-11T10:50:33.283Z,0.60
2023-03-11T10:53:09.280Z,0.85
2023-03-11T10:55:37.185Z,0.95
2023-03-11T10:58:15.533Z,0.93
2023-03-11T11:00:43.020Z,0.75
2023-03-11T11:03:22.090Z,0.80
2023-03-11T11:06:04.043Z,0.65
2023-03-11T11:08:31.793Z,0.60
2023-03-11T11:11:02.952Z,0.90
2023-03-11T11:13:31.381Z,1.40
2023-03-11T11:16:03.356Z,0.90
2023-03-11T11:18:49.504Z,0.93
2023-03-11T11:21:18.193Z,0.93
2023-03-11T11:23:49.093Z,0.90
2023-03-11T11:26:18.649Z,0.93
2023-03-11T11:28:54.303Z,0.80
2023-03-11T11:31:23.847Z,1.05
2023-03-11T11:33:52.814Z,0.77
2023-03-11T11:36:21.219Z,1.35
2023-03-11T11:38:48.370Z,1.13
2023-03-11T11:41:19.314Z,1.02
2023-03-11T11:43:52.345Z,1.45
2023-03-11T11:46:39.857Z,0.90
2023-03-11T11:49:27.814Z,1.10
2023-03-11T11:52:09.983Z,0.95
2023-03-11T11:54:44.295Z,0.90
2023-03-11T11:57:13.035Z,1.00
2023-03-11T11:59:40.511Z,1.17
2023-03-11T12:02:10.378Z,0.77
2023-03-11T12:04:43.643Z,0.80
2023-03-11T12:07:14.920Z,0.80
2023-03-11T12:09:54.377Z,0.80
2023-03-11T12:12:24.393Z,0.70
2023-03-11T12:15:08.670Z,0.60
2023-03-11T12:17:38.011Z,0.73
2023-03-11T12:20:24.321Z,0.90
2023-03-11T12:23:09.800Z,0.57
2023-03-11T12:29:05.487Z,0.80
2023-03-11T12:31:51.524Z,0.70
2023-03-11T12:35:00.104Z,0.55
2023-03-11T12:37:27.264Z,0.80
2023-03-11T12:39:54.427Z,1.50
2023-03-11T12:42:22.460Z,0.88
2023-03-11T12:44:50.387Z,0.68
2023-03-11T12:47:18.793Z,0.75
2023-03-11T12:49:47.562Z,1.10
2023-03-11T12:52:14.643Z,0.63
2023-03-11T12:54:41.928Z,0.90
2023-03-11T12:57:09.039Z,0.80
2023-03-11T12:59:39.230Z,1.00
2023-03-11T13:02:21.443Z,0.77
2023-03-11T13:05:07.865Z,0.75
2023-03-11T13:07:38.111Z,1.10
2023-03-11T13:10:08.221Z,0.90
2023-03-11T13:12:43.202Z,0.95
2023-03-11T13:17:37.486Z,0.60
2023-03-11T13:20:04.988Z,0.57
2023-03-11T13:22:43.642Z,0.50
2023-03-11T13:25:26.115Z,0.68
2023-03-11T13:27:55.141Z,0.30
2023-03-11T13:30:25.901Z,0.70
2023-03-11T13:33:14.851Z,0.90
2023-03-11T13:35:42.016Z,0.70
2023-03-11T13:38:27.422Z,1.95
2023-03-11T13:40:55.685Z,0.70
2023-03-11T13:43:23.703Z,0.70
2023-03-11T13:46:09.021Z,0.60
2023-03-11T13:48:45.312Z,0.63
2023-03-11T13:51:21.047Z,0.80
2023-03-11T13:53:55.248Z,0.60
2023-03-11T13:56:27.754Z,0.65
2023-03-11T13:58:54.921Z,0.60
2023-03-11T14:01:22.069Z,0.60
2023-03-11T14:03:49.395Z,0.90
2023-03-11T14:06:19.745Z,1.20
2023-03-11T14:08:54.537Z,0.90
2023-03-11T14:11:27.146Z,0.75
2023-03-11T14:13:54.555Z,0.75
2023-03-11T14:16:23.437Z,0.95
2023-03-11T14:19:12.319Z,0.80
2023-03-11T14:21:42.549Z,1.80
2023-03-11T14:24:20.173Z,1.42
2023-03-11T14:26:50.547Z,0.70
2023-03-11T14:29:19.279Z,0.93
2023-03-11T14:31:46.953Z,0.90
2023-03-11T14:34:16.267Z,1.00
2023-03-11T14:36:44.609Z,0.90
2023-03-11T14:39:24.237Z,0.90
2023-03-11T14:41:53.476Z,0.73
2023-03-11T14:44:21.578Z,0.70
2023-03-11T14:46:49.129Z,0.82
2023-03-11T14:49:22.073Z,0.60
2023-03-11T14:51:53.344Z,0.73
2023-03-11T14:54:24.056Z,0.82
2023-03-11T14:56:54.365Z,0.60
2023-03-11T14:59:26.881Z,0.40
2023-03-11T15:01:55.881Z,0.60
2023-03-11T15:06:51.436Z,1.35
2023-03-11T15:09:23.529Z,1.00
2023-03-11T15:11:55.510Z,0.70
2023-03-11T15:14:22.697Z,0.70
2023-03-11T15:16:49.939Z,0.57
2023-03-11T15:19:29.329Z,0.60
2023-03-11T15:21:59.817Z,0.70
2023-03-11T15:33:02.447Z,0.82
2023-03-11T15:35:32.184Z,0.75
2023-03-11T15:38:20.908Z,0.90
2023-03-11T15:40:56.226Z,0.85
2023-03-11T15:45:54.454Z,1.05
2023-03-11T15:48:22.357Z,0.70
2023-03-11T15:50:56.415Z,1.20
2023-03-11T15:53:24.432Z,1.17
2023-03-11T15:55:53.019Z,1.00
2023-03-11T15:58:21.258Z,1.05
2023-03-11T16:00:50.142Z,1.67
2023-03-11T16:03:17.476Z,0.93
2023-03-11T16:05:44.634Z,0.95
2023-03-11T16:08:11.995Z,1.40
2023-03-11T16:10:39.566Z,1.10
2023-03-11T16:13:07.074Z,1.23
2023-03-11T16:15:35.655Z,0.90
2023-03-11T16:18:07.565Z,0.93
2023-03-11T16:20:37.862Z,1.10
2023-03-11T16:23:05.138Z,1.10
2023-03-11T16:25:34.316Z,1.10
2023-03-11T16:28:02.031Z,1.10
2023-03-11T16:30:30.093Z,0.93
2023-03-11T16:32:57.352Z,0.90
2023-03-11T16:35:24.689Z,1.00
2023-03-11T16:37:52.191Z,0.93
2023-03-11T16:40:21.755Z,1.10
2023-03-11T16:42:49.356Z,0.98
2023-03-11T16:45:17.579Z,1.13
2023-03-11T16:47:44.855Z,0.80
2023-03-11T16:50:12.819Z,1.08
2023-03-11T16:52:40.161Z,0.90
2023-03-11T16:55:07.490Z,1.42
2023-03-11T16:57:35.422Z,1.60
2023-03-11T17:00:04.554Z,2.45
2023-03-11T17:02:31.822Z,2.13
2023-03-11T17:04:59.073Z,2.53
2023-03-11T17:07:26.945Z,2.72
2023-03-11T17:09:54.090Z,2.80
2023-03-11T17:12:23.047Z,2.22
2023-03-11T17:14:50.200Z,2.00
2023-03-11T17:17:17.357Z,2.40
2023-03-11T17:19:44.740Z,2.53
2023-03-11T17:22:15.654Z,3.38
2023-03-11T17:24:42.928Z,3.05
2023-03-11T17:27:11.054Z,2.60
2023-03-11T17:29:38.323Z,2.97
2023-03-11T17:32:06.680Z,3.78
2023-03-11T17:34:33.949Z,6.28
2023-03-11T17:37:01.170Z,7.18
2023-03-11T17:39:28.385Z,1.70
2023-03-11T17:41:55.528Z,1.83
2023-03-11T17:44:22.900Z,1.80
2023-03-11T17:46:51.105Z,2.10
2023-03-11T17:49:18.283Z,6.75
2023-03-11T17:51:45.445Z,6.22
2023-03-11T17:54:12.585Z,8.43
2023-03-11T17:56:39.943Z,8.65
2023-03-11T17:59:07.320Z,8.13
2023-03-11T18:01:34.961Z,10.60
2023-03-11T18:04:02.226Z,10.75
2023-03-11T18:06:30.594Z,9.20
2023-03-11T18:08:57.872Z,9.10
2023-03-11T18:11:26.240Z,9.00
2023-03-11T18:13:54.086Z,7.78
2023-03-11T18:16:22.588Z,10.25
2023-03-11T18:18:50.167Z,16.05
2023-03-11T18:21:18.955Z,19.40
2023-03-11T18:23:46.146Z,18.10
2023-03-11T18:26:14.510Z,17.70
2023-03-11T18:28:42.462Z,17.30
2023-03-11T18:31:14.162Z,24.17
2023-03-11T18:33:41.421Z,11.13
2023-03-11T18:36:17.777Z,10.13
2023-03-11T18:38:45.335Z,9.20
2023-03-11T18:41:12.788Z,9.50
2023-03-11T18:43:40.283Z,9.57
2023-03-11T18:46:08.782Z,11.68
2023-03-11T18:48:36.219Z,10.30
2023-03-11T18:51:03.639Z,7.05
2023-03-11T18:53:30.820Z,3.95
2023-03-11T18:56:03.190Z,3.65
2023-03-11T18:58:30.374Z,5.32
2023-03-11T19:01:04.179Z,5.95
2023-03-11T19:03:31.387Z,11.18
2023-03-11T19:05:59.541Z,15.07
2023-03-11T19:08:26.941Z,14.75
2023-03-11T19:10:54.124Z,13.90
2023-03-11T19:13:21.497Z,12.60
2023-03-11T19:15:48.895Z,11.82
2023-03-11T19:18:16.174Z,15.02
2023-03-11T19:20:43.283Z,17.48
2023-03-11T19:23:11.404Z,21.90
2023-03-11T19:25:38.584Z,14.02
2023-03-11T19:28:05.872Z,9.80
2023-03-11T19:30:33.535Z,12.27
2023-03-11T19:33:00.728Z,9.25
2023-03-11T19:35:27.963Z,12.55
2023-03-11T19:37:57.367Z,8.98
2023-03-11T19:40:25.131Z,10.18
2023-03-11T19:42:52.577Z,13.32
2023-03-11T19:45:19.811Z,14.18
2023-03-11T19:47:50.618Z,8.95
2023-03-11T19:50:18.439Z,9.25
2023-03-11T19:52:45.801Z,8.00
2023-03-11T19:55:13.110Z,6.72
2023-03-11T19:57:40.226Z,10.18
2023-03-11T20:00:07.779Z,5.03
2023-03-11T20:02:34.945Z,7.32
2023-03-11T20:05:02.440Z,10.80
2023-03-11T20:07:29.778Z,18.02
2023-03-11T20:09:57.834Z,17.00
2023-03-11T20:12:25.109Z,12.25
2023-03-11T20:14:52.343Z,18.23
2023-03-11T20:17:19.653Z,15.82
2023-03-11T20:19:46.852Z,12.15
2023-03-11T20:22:13.975Z,12.93
2023-03-11T20:24:41.275Z,12.70
2023-03-11T20:27:08.437Z,12.80
2023-03-11T20:29:35.827Z,11.48
2023-03-11T20:32:04.424Z,10.63
2023-03-11T20:34:31.685Z,9.00
2023-03-11T20:36:59.057Z,9.70
2023-03-11T20:39:26.339Z,9.65
2023-03-11T20:41:53.747Z,10.60
2023-03-11T20:44:21.337Z,9.13
2023-03-11T20:46:49.520Z,9.98
2023-03-11T20:49:16.743Z,9.00
2023-03-11T20:51:47.964Z,9.55
2023-03-11T20:54:16.272Z,8.45
2023-03-11T20:56:43.653Z,9.55
2023-03-11T20:59:13.362Z,9.80
2023-03-11T21:01:41.048Z,6.45
2023-03-11T21:04:08.422Z,7.00
2023-03-11T21:06:36.997Z,6.32
2023-03-11T21:09:06.350Z,7.15
2023-03-11T21:11:33.838Z,7.18
2023-03-11T21:14:01.611Z,7.03
2023-03-11T21:16:28.853Z,7.50
2023-03-11T21:18:56.452Z,7.53
2023-03-11T21:21:24.020Z,8.02
2023-03-11T21:23:51.337Z,8.38
2023-03-11T21:26:18.749Z,8.95
2023-03-11T21:28:46.937Z,8.65
2023-03-11T21:31:16.280Z,9.35
2023-03-11T21:33:43.647Z,10.30
2023-03-11T21:36:11.788Z,10.35
2023-03-11T21:38:42.813Z,10.18
2023-03-11T21:41:11.390Z,9.38
2023-03-11T21:43:39.029Z,8.38
2023-03-11T21:46:07.025Z,8.13
2023-03-11T21:48:34.280Z,8.52
2023-03-11T21:51:01.803Z,7.43
2023-03-11T21:53:29.625Z,7.82
2023-03-11T21:55:56.874Z,7.97
2023-03-11T21:58:24.128Z,8.05
2023-03-11T22:00:52.459Z,9.27
2023-03-11T22:03:20.398Z,6.60
2023-03-11T22:05:47.770Z,9.32
2023-03-11T22:08:15.048Z,8.20
2023-03-11T22:10:42.712Z,9.38
2023-03-11T22:13:10.010Z,10.93
2023-03-11T22:15:37.548Z,11.07
2023-03-11T22:18:04.907Z,9.38
2023-03-11T22:20:32.233Z,9.35
2023-03-11T22:22:59.492Z,9.77
2023-03-11T22:25:26.924Z,8.32
2023-03-11T22:27:55.964Z,8.23
2023-03-11T22:30:23.943Z,8.15
2023-03-11T22:32:51.135Z,8.15
2023-03-11T22:35:18.616Z,7.35
2023-03-11T22:37:45.906Z,6.85
2023-03-11T22:40:13.336Z,7.20
2023-03-11T22:42:40.663Z,6.78
2023-03-11T22:45:08.171Z,5.88
2023-03-11T22:47:35.382Z,6.85
2023-03-11T22:50:02.845Z,6.50
2023-03-11T22:52:29.924Z,7.28
2023-03-11T22:54:57.135Z,6.30
2023-03-11T22:57:24.294Z,6.35
2023-03-11T22:59:51.401Z,6.95
2023-03-11T23:02:18.769Z,7.05
2023-03-11T23:04:46.037Z,6.97
2023-03-11T23:07:13.270Z,7.57
2023-03-11T23:09:42.806Z,7.40
2023-03-11T23:12:09.971Z,6.75
2023-03-11T23:14:44.930Z,6.70
2023-03-11T23:17:12.679Z,6.32
2023-03-11T23:19:40.109Z,6.07
2023-03-11T23:22:07.516Z,5.93
2023-03-11T23:24:34.747Z,5.78
2023-03-11T23:27:04.769Z,5.38
2023-03-11T23:29:32.347Z,4.97
2023-03-11T23:31:59.647Z,4.90
2023-03-11T23:34:26.772Z,5.38
2023-03-11T23:36:54.048Z,4.80
2023-03-11T23:39:21.192Z,4.60
2023-03-11T23:41:48.342Z,4.63
2023-03-11T23:44:16.499Z,4.60
2023-03-11T23:46:43.685Z,4.63
2023-03-11T23:49:10.912Z,4.07
2023-03-11T23:51:38.060Z,4.00
2023-03-11T23:54:05.300Z,4.18
2023-03-11T23:56:32.529Z,4.65
2023-03-11T23:58:59.658Z,4.32
